Time;durP1;ratioP1;P1;durP2;ratioP2;P2;SDS_P1;SDS_P2;PMS_P1;PMS_P2;Temp;Humidity;BMP_temperature;BMP_pressure;BME280_temperature;BME280_humidity;BME280_pressure;Samples;Min_cycle;Max_cycle;Signal;HPM_P1;HPM_P2
2021/08/21 00:00:08;;;;;;;47.28;24.17;;;;;;;14.89;100.00;101988.16;5061174;28;20066;-73
2021/08/21 00:02:36;;;;;;;37.15;18.80;;;;;;;14.87;100.00;101981.94;5060935;28;20913;-73
2021/08/21 00:05:05;;;;;;;35.10;18.23;;;;;;;14.88;100.00;101984.59;5055857;28;20130;-73
2021/08/21 00:07:34;;;;;;;39.75;21.52;;;;;;;14.90;100.00;101984.53;5059095;28;20102;-73
2021/08/21 00:10:05;;;;;;;35.45;19.98;;;;;;;14.90;100.00;101985.41;5054432;28;20167;-74
2021/08/21 00:12:33;;;;;;;33.40;17.70;;;;;;;14.91;100.00;101983.59;5059000;28;20064;-74
2021/08/21 00:15:01;;;;;;;29.70;16.33;;;;;;;14.90;100.00;101984.53;5057644;28;20135;-74
2021/08/21 00:17:29;;;;;;;31.48;15.75;;;;;;;14.88;100.00;101984.59;5059351;28;20114;-73
2021/08/21 00:19:56;;;;;;;38.67;18.42;;;;;;;14.86;100.00;101982.88;5056612;28;21673;-73
2021/08/21 00:22:24;;;;;;;35.70;17.63;;;;;;;14.84;100.00;101982.91;5057520;28;20048;-74
2021/08/21 00:24:52;;;;;;;38.20;18.95;;;;;;;14.84;100.00;101976.66;5057392;28;20423;-74
2021/08/21 00:27:22;;;;;;;34.22;18.00;;;;;;;14.81;100.00;101985.69;5055065;28;20274;-73
2021/08/21 00:29:49;;;;;;;34.28;17.45;;;;;;;14.84;100.00;101987.41;5059464;28;20060;-73
2021/08/21 00:32:17;;;;;;;37.67;19.08;;;;;;;14.84;100.00;101990.97;5057852;28;20486;-73
2021/08/21 00:34:45;;;;;;;43.80;22.92;;;;;;;14.85;100.00;101990.06;5055997;28;20106;-73
2021/08/21 00:37:12;;;;;;;49.10;25.17;;;;;;;14.83;100.00;101981.16;5060218;28;20052;-74
2021/08/21 00:39:41;;;;;;;41.05;20.63;;;;;;;14.79;100.00;101982.16;5052012;28;20089;-74
2021/08/21 00:42:09;;;;;;;39.75;21.80;;;;;;;14.74;100.00;101976.97;5057758;28;20071;-73
2021/08/21 00:44:39;;;;;;;36.60;18.98;;;;;;;14.73;100.00;101975.19;5053401;28;20528;-73
2021/08/21 00:47:10;;;;;;;33.15;18.52;;;;;;;14.72;100.00;101975.25;5055008;28;20514;-74
2021/08/21 00:49:40;;;;;;;36.35;19.25;;;;;;;14.69;100.00;101967.28;5055632;28;20068;-75
2021/08/21 00:52:11;;;;;;;37.47;18.77;;;;;;;14.67;100.00;101970.00;5054194;28;20473;-76
2021/08/21 00:54:42;;;;;;;32.45;16.15;;;;;;;14.63;100.00;101964.81;5057651;28;20041;-73
2021/08/21 00:57:11;;;;;;;31.50;17.85;;;;;;;14.59;100.00;101968.50;5054166;28;20096;-74
2021/08/21 00:59:42;;;;;;;34.63;18.20;;;;;;;14.57;100.00;101968.50;5059681;28;20072;-74
2021/08/21 01:02:11;;;;;;;38.72;19.88;;;;;;;14.50;100.00;101975.88;5054011;28;20129;-74
2021/08/21 01:04:41;;;;;;;33.83;17.55;;;;;;;14.47;100.00;101967.94;5054570;28;20143;-74
2021/08/21 01:07:09;;;;;;;36.70;17.83;;;;;;;14.48;100.00;101969.66;5057516;28;20119;-74
2021/08/21 01:09:37;;;;;;;32.95;17.75;;;;;;;14.44;100.00;101964.44;5060304;28;20064;-74
2021/08/21 01:12:06;;;;;;;38.03;19.05;;;;;;;14.42;100.00;101960.91;5060074;28;20195;-74
2021/08/21 01:14:34;;;;;;;38.13;19.20;;;;;;;14.37;100.00;101970.00;5059036;28;20070;-74
2021/08/21 01:17:04;;;;;;;42.08;21.55;;;;;;;14.35;100.00;101970.97;5061728;28;20586;-74
2021/08/21 01:19:33;;;;;;;35.20;18.80;;;;;;;14.31;100.00;101971.97;5057919;28;20146;-74
2021/08/21 01:22:01;;;;;;;38.65;18.58;;;;;;;14.30;100.00;101971.13;5058602;28;20052;-74
2021/08/21 01:24:28;;;;;;;34.83;17.85;;;;;;;14.28;100.00;101969.38;5061782;28;20052;-74
2021/08/21 01:26:58;;;;;;;41.47;21.50;;;;;;;14.21;100.00;101968.69;5060523;28;20111;-73
2021/08/21 01:29:26;;;;;;;37.28;18.95;;;;;;;14.19;100.00;101971.41;5058785;28;20052;-74
2021/08/21 01:31:54;;;;;;;34.25;19.40;;;;;;;14.15;100.00;101972.44;5063522;28;20490;-74
2021/08/21 01:34:22;;;;;;;35.03;18.45;;;;;;;14.15;100.00;101972.44;5057407;28;20132;-74
2021/08/21 01:36:51;;;;;;;30.30;17.73;;;;;;;14.12;100.00;101963.59;5063299;28;20098;-74
2021/08/21 01:39:19;;;;;;;36.10;18.95;;;;;;;14.10;100.00;101960.09;5058922;28;20109;-74
2021/08/21 01:41:47;;;;;;;36.38;19.13;;;;;;;14.10;100.00;101960.97;5060522;28;20071;-75
2021/08/21 01:44:19;;;;;;;39.15;20.60;;;;;;;14.10;100.00;101960.97;5062658;28;20084;-73
2021/08/21 01:46:48;;;;;;;43.65;21.33;;;;;;;14.10;100.00;101960.97;5060993;28;20087;-74
2021/08/21 01:49:18;;;;;;;38.88;20.02;;;;;;;14.10;100.00;101962.78;5056585;28;20457;-74
2021/08/21 01:51:48;;;;;;;42.22;22.70;;;;;;;14.14;100.00;101962.63;5055960;28;20125;-74
2021/08/21 01:54:17;;;;;;;43.70;21.70;;;;;;;14.18;100.00;101971.44;5060249;28;20594;-73
2021/08/21 01:56:46;;;;;;;46.30;24.60;;;;;;;14.23;100.00;101966.81;5064910;28;20387;-74
2021/08/21 01:59:23;;;;;;;57.03;32.33;;;;;;;14.25;100.00;101961.41;5059791;28;20371;-74
2021/08/21 02:01:53;;;;;;;54.83;28.00;;;;;;;14.25;100.00;101962.31;5063316;28;20130;-76
2021/08/21 02:04:21;;;;;;;52.90;26.70;;;;;;;14.31;100.00;101963.94;5060602;28;20106;-75
2021/08/21 02:06:50;;;;;;;61.83;28.83;;;;;;;14.33;100.00;101960.25;5065891;28;20083;-75
2021/08/21 02:09:20;;;;;;;60.00;30.88;;;;;;;14.28;100.00;101962.19;5060607;28;20087;-75
2021/08/21 02:11:50;;;;;;;58.45;30.23;;;;;;;14.27;100.00;101963.16;5059873;28;20079;-75
2021/08/21 02:14:19;;;;;;;57.67;26.27;;;;;;;14.23;100.00;101964.16;5061150;28;20060;-75
2021/08/21 02:16:51;;;;;;;58.58;29.48;;;;;;;14.22;100.00;101958.81;5060406;28;20296;-75
2021/08/21 02:19:20;;;;;;;57.25;29.33;;;;;;;14.24;100.00;101962.38;5057325;28;20096;-76
2021/08/21 02:21:48;;;;;;;60.45;31.00;;;;;;;14.14;100.00;101967.13;5056802;28;20076;-74
2021/08/21 02:24:17;;;;;;;52.70;26.92;;;;;;;14.09;100.00;101963.69;5059512;28;20071;-74
2021/08/21 02:26:45;;;;;;;44.80;22.98;;;;;;;14.07;100.00;101963.72;5059784;28;20534;-74
2021/08/21 02:29:14;;;;;;;62.60;31.52;;;;;;;14.04;100.00;101965.63;5062141;28;20064;-75
2021/08/21 02:31:42;;;;;;;69.70;38.50;;;;;;;14.00;100.00;101965.69;5056763;28;20597;-75
2021/08/21 02:34:11;;;;;;;57.85;30.02;;;;;;;13.95;100.00;101966.75;5061587;28;20070;-71
2021/08/21 02:36:38;;;;;;;51.60;26.55;;;;;;;13.94;100.00;101967.69;5057845;28;20498;-72
2021/08/21 02:39:06;;;;;;;50.08;25.77;;;;;;;13.87;100.00;101964.28;5059643;28;20073;-71
2021/08/21 02:41:34;;;;;;;54.25;27.13;;;;;;;13.85;100.00;101960.78;5057523;28;20630;-71
2021/08/21 02:44:02;;;;;;;50.92;26.92;;;;;;;13.85;100.00;101957.22;5059730;28;20057;-71
2021/08/21 02:46:30;;;;;;;50.85;27.13;;;;;;;13.86;100.00;101959.84;5054424;28;20114;-71
2021/08/21 02:48:57;;;;;;;48.95;24.08;;;;;;;13.85;100.00;101954.53;5058172;28;20064;-71
2021/08/21 02:51:27;;;;;;;48.00;24.77;;;;;;;13.87;100.00;101952.69;5056638;28;20065;-70
2021/08/21 02:53:54;;;;;;;44.97;21.63;;;;;;;13.87;100.00;101944.63;5057776;28;20343;-71
2021/08/21 02:56:22;;;;;;;42.80;23.70;;;;;;;13.89;100.00;101949.00;5057163;28;20371;-71
2021/08/21 02:58:50;;;;;;;49.40;23.67;;;;;;;13.89;100.00;101951.69;5058689;28;20155;-71
2021/08/21 03:01:18;;;;;;;46.03;23.17;;;;;;;13.96;100.00;101942.56;5055854;28;20421;-71
2021/08/21 03:03:46;;;;;;;47.20;24.13;;;;;;;13.97;100.00;101944.31;5056919;28;20069;-72
2021/08/21 03:06:13;;;;;;;44.42;23.63;;;;;;;14.00;100.00;101938.00;5057533;28;20150;-72
2021/08/21 03:08:42;;;;;;;52.72;26.38;;;;;;;14.05;100.00;101943.25;5061827;28;20042;-71
2021/08/21 03:11:11;;;;;;;50.78;25.15;;;;;;;14.07;100.00;101936.00;5057943;28;20459;-71
2021/08/21 03:13:39;;;;;;;51.65;25.88;;;;;;;14.09;100.00;101934.16;5056491;28;20102;-71
2021/08/21 03:16:07;;;;;;;54.97;26.52;;;;;;;14.11;100.00;101935.84;5058255;28;20072;-71
2021/08/21 03:18:35;;;;;;;53.15;27.55;;;;;;;14.12;100.00;101932.25;5058194;28;20060;-71
2021/08/21 03:21:02;;;;;;;50.38;25.90;;;;;;;14.12;100.00;101940.31;5060199;28;20109;-71
2021/08/21 03:23:30;;;;;;;47.88;22.55;;;;;;;14.11;100.00;101946.59;5056413;28;20615;-72
2021/08/21 03:25:59;;;;;;;50.53;24.27;;;;;;;14.10;100.00;101935.94;5058626;28;20101;-71
2021/08/21 03:28:27;;;;;;;52.13;25.60;;;;;;;14.08;100.00;101938.66;5058278;28;20145;-71
2021/08/21 03:30:55;;;;;;;51.78;25.40;;;;;;;14.12;100.00;101934.94;5054881;28;20064;-71
2021/08/21 03:33:23;;;;;;;50.53;23.52;;;;;;;14.11;100.00;101943.03;5060033;28;20064;-71
2021/08/21 03:35:51;;;;;;;49.00;22.73;;;;;;;14.14;100.00;101926.84;5054335;28;20066;-71
2021/08/21 03:38:19;;;;;;;55.88;27.00;;;;;;;14.16;100.00;101933.91;5057929;28;20065;-71
2021/08/21 03:40:47;;;;;;;56.92;27.20;;;;;;;14.18;100.00;101928.50;5057207;28;20064;-72
2021/08/21 03:43:16;;;;;;;63.22;29.88;;;;;;;14.22;100.00;101927.50;5057920;28;20567;-71
2021/08/21 03:45:44;;;;;;;59.40;28.02;;;;;;;14.24;100.00;101933.72;5061196;28;20096;-72
2021/08/21 03:48:12;;;;;;;61.30;29.70;;;;;;;14.27;100.00;101936.31;5054397;28;20060;-71
2021/08/21 03:50:39;;;;;;;64.95;29.23;;;;;;;14.29;100.00;101931.75;5060547;28;20098;-71
2021/08/21 03:53:07;;;;;;;63.60;28.55;;;;;;;14.31;100.00;101927.22;5054089;28;20510;-71
2021/08/21 03:55:35;;;;;;;62.90;30.50;;;;;;;14.29;100.00;101926.38;5056244;28;20094;-71
2021/08/21 03:58:03;;;;;;;59.97;28.50;;;;;;;14.33;100.00;101928.03;5058020;28;20497;-71
2021/08/21 04:00:32;;;;;;;59.60;29.42;;;;;;;14.38;100.00;101925.22;5056421;28;20101;-71
2021/08/21 04:03:00;;;;;;;64.50;29.60;;;;;;;14.42;100.00;101926.91;5061987;28;20060;-71
2021/08/21 04:05:29;;;;;;;67.82;30.45;;;;;;;14.44;100.00;101924.16;5054104;28;20127;-72
2021/08/21 04:07:57;;;;;;;62.85;29.77;;;;;;;14.47;100.00;101927.66;5060119;28;20076;-71
2021/08/21 04:10:25;;;;;;;63.42;28.10;;;;;;;14.49;100.00;101920.41;5055518;28;20069;-71
2021/08/21 04:12:53;;;;;;;67.78;30.30;;;;;;;14.55;100.00;101925.56;5056113;28;20092;-71
2021/08/21 04:15:20;;;;;;;76.00;34.75;;;;;;;14.63;100.00;101927.19;5057654;28;20318;-71
2021/08/21 04:17:49;;;;;;;74.47;33.85;;;;;;;14.68;100.00;101936.84;5055066;28;20087;-71
2021/08/21 04:20:19;;;;;;;73.65;33.55;;;;;;;14.70;100.00;101932.31;5057565;28;20492;-71
2021/08/21 04:22:47;;;;;;;69.30;32.35;;;;;;;14.71;100.00;101926.03;5055710;28;20362;-71
2021/08/21 04:25:14;;;;;;;76.35;32.88;;;;;;;14.75;100.00;101929.47;5056896;28;20396;-71
2021/08/21 04:27:43;;;;;;;69.97;31.27;;;;;;;14.74;100.00;101925.94;5056677;28;20065;-71
2021/08/21 04:30:13;;;;;;;63.30;28.30;;;;;;;14.74;100.00;101928.59;5055987;28;20712;-71
2021/08/21 04:32:41;;;;;;;61.80;31.10;;;;;;;14.77;100.00;101929.44;5061628;28;20382;-71
2021/08/21 04:35:11;;;;;;;62.83;30.30;;;;;;;14.81;100.00;101923.03;5055409;28;20383;-71
2021/08/21 04:37:39;;;;;;;74.25;32.95;;;;;;;14.84;100.00;101921.09;5059104;28;20072;-71
2021/08/21 04:40:08;;;;;;;70.82;31.80;;;;;;;14.89;100.00;101931.72;5054527;28;20053;-71
2021/08/21 04:42:35;;;;;;;70.95;31.80;;;;;;;14.93;100.00;101928.88;5055593;28;20459;-71
2021/08/21 04:45:03;;;;;;;63.53;29.75;;;;;;;14.93;100.00;101923.50;5052487;28;20076;-71
2021/08/21 04:47:31;;;;;;;67.15;32.50;;;;;;;15.02;100.00;101926.81;5057115;28;20052;-71
2021/08/21 04:49:59;;;;;;;68.60;31.13;;;;;;;15.03;100.00;101925.88;5056078;28;20040;-71
2021/08/21 04:52:28;;;;;;;60.17;30.35;;;;;;;15.02;100.00;101926.81;5054183;28;20048;-71
2021/08/21 04:54:56;;;;;;;61.65;29.77;;;;;;;15.01;100.00;101922.38;5055426;28;20068;-71
2021/08/21 04:57:24;;;;;;;66.93;29.60;;;;;;;15.05;100.00;101937.44;5053515;28;20079;-71
2021/08/21 04:59:52;;;;;;;61.00;31.15;;;;;;;15.07;100.00;101932.94;5052423;28;20151;-71
2021/08/21 05:02:19;;;;;;;69.30;30.30;;;;;;;15.11;100.00;101940.81;5059032;28;20283;-72
2021/08/21 05:04:47;;;;;;;63.20;29.23;;;;;;;15.12;100.00;101936.34;5054369;28;20148;-72
2021/08/21 05:07:15;;;;;;;65.20;28.45;;;;;;;15.15;100.00;101943.41;5055757;28;20417;-73
2021/08/21 05:09:44;;;;;;;57.50;27.45;;;;;;;15.18;100.00;101937.94;5049586;28;20370;-73
2021/08/21 05:12:12;;;;;;;66.90;28.95;;;;;;;15.23;100.00;101944.91;5051978;28;20064;-74
2021/08/21 05:14:40;;;;;;;59.05;28.55;;;;;;;15.25;100.00;101945.72;5059193;28;20133;-71
2021/08/21 05:17:08;;;;;;;62.85;28.15;;;;;;;15.29;100.00;101951.91;5053535;28;20121;-71
2021/08/21 05:19:39;;;;;;;68.13;28.52;;;;;;;15.26;100.00;101947.50;5052794;28;20402;-71
2021/08/21 05:22:21;;;;;;;57.30;26.45;;;;;;;15.26;100.00;101944.81;5053136;28;20056;-71
2021/08/21 05:24:51;;;;;;;57.05;25.05;;;;;;;15.25;100.00;101943.03;5056047;28;20052;-71
2021/08/21 05:27:20;;;;;;;59.53;28.50;;;;;;;15.24;100.00;101937.72;5054393;28;20068;-73
2021/08/21 05:29:48;;;;;;;61.05;26.13;;;;;;;15.27;100.00;101937.59;5057338;28;20068;-73
2021/08/21 05:32:16;;;;;;;66.07;28.90;;;;;;;15.31;100.00;101940.13;5056845;28;20118;-72
2021/08/21 05:34:43;;;;;;;59.60;26.88;;;;;;;15.38;100.00;101950.69;5056015;28;20064;-73
2021/08/21 05:37:11;;;;;;;60.88;26.52;;;;;;;15.40;100.00;101947.00;5056713;28;20069;-73
2021/08/21 05:39:39;;;;;;;58.10;26.63;;;;;;;15.44;100.00;101953.16;5056181;28;20103;-73
2021/08/21 05:42:10;;;;;;;55.88;25.65;;;;;;;15.50;100.00;101944.88;5059956;28;20098;-73
2021/08/21 05:44:37;;;;;;;60.83;26.08;;;;;;;15.60;100.00;101949.00;5058308;28;20082;-73
2021/08/21 05:47:05;;;;;;;61.08;27.02;;;;;;;15.62;100.00;101944.44;5056279;28;20069;-73
2021/08/21 05:49:33;;;;;;;60.13;27.65;;;;;;;15.65;100.00;101947.03;5052568;28;20365;-73
2021/08/21 05:52:01;;;;;;;58.10;26.23;;;;;;;15.67;100.00;101947.84;5056567;28;20435;-73
2021/08/21 05:54:28;;;;;;;70.05;27.35;;;;;;;15.74;100.00;101948.50;5053225;28;20280;-74
2021/08/21 05:56:57;;;;;;;63.08;26.60;;;;;;;15.80;100.00;101950.13;5064806;28;20500;-72
2021/08/21 05:59:31;;;;;;;59.10;25.98;;;;;;;15.85;100.00;101942.75;5058931;28;20474;-73
2021/08/21 06:01:58;;;;;;;60.42;25.73;;;;;;;15.98;100.00;101946.75;5060999;28;20117;-73
2021/08/21 06:04:26;;;;;;;61.33;25.92;;;;;;;16.32;100.00;101953.56;5058823;28;20130;-73
2021/08/21 06:06:54;;;;;;;65.22;27.77;;;;;;;16.58;100.00;101948.97;5059372;28;20064;-73
2021/08/21 06:09:23;;;;;;;56.38;24.20;;;;;;;16.66;100.00;101949.53;5056141;28;20158;-73
2021/08/21 06:11:51;;;;;;;56.15;24.80;;;;;;;16.57;100.00;101945.41;5058491;28;20536;-74
2021/08/21 06:14:19;;;;;;;57.88;24.20;;;;;;;16.56;100.00;101943.63;5059227;28;20147;-73
2021/08/21 06:16:48;;;;;;;53.17;24.63;;;;;;;16.52;100.00;101942.00;5055515;28;21391;-74
2021/08/21 06:19:15;;;;;;;55.10;24.20;;;;;;;16.62;100.00;101942.53;5057392;28;20106;-73
2021/08/21 06:21:44;;;;;;;49.92;23.35;;;;;;;16.63;100.00;101949.66;5058696;28;20451;-73
2021/08/21 06:24:12;;;;;;;52.05;24.25;;;;;;;16.79;100.00;101955.31;5058135;28;20065;-73
2021/08/21 06:26:39;;;;;;;52.65;23.60;;;;;;;17.27;100.00;101951.56;5060775;28;20068;-73
2021/08/21 06:29:07;;;;;;;48.22;22.70;;;;;;;17.14;100.00;101945.78;5054716;28;20087;-73
2021/08/21 06:31:35;;;;;;;46.17;21.98;;;;;;;17.08;100.00;101954.16;5060644;28;20071;-73
2021/08/21 06:34:04;;;;;;;44.67;22.02;;;;;;;17.17;100.00;101944.81;5061598;28;20067;-74
2021/08/21 06:36:32;;;;;;;47.55;21.35;;;;;;;17.17;100.00;101947.50;5058239;28;20064;-73
2021/08/21 06:39:00;;;;;;;43.72;20.10;;;;;;;17.20;100.00;101944.69;5059744;28;20115;-73
2021/08/21 06:41:28;;;;;;;39.33;18.63;;;;;;;17.25;100.00;101942.66;5056765;28;20507;-73
2021/08/21 06:43:55;;;;;;;41.95;19.42;;;;;;;17.26;100.00;101943.53;5058842;28;20059;-73
2021/08/21 06:46:23;;;;;;;38.70;17.80;;;;;;;17.28;100.00;101945.22;5055968;28;20117;-73
2021/08/21 06:48:51;;;;;;;39.05;18.23;;;;;;;17.28;100.00;101945.22;5060064;28;20097;-73
2021/08/21 06:51:20;;;;;;;38.40;18.13;;;;;;;17.25;99.41;101939.09;5057306;28;20065;-74
2021/08/21 06:53:50;;;;;;;42.47;19.00;;;;;;;17.21;100.00;101941.00;5058671;28;20471;-73
2021/08/21 06:56:20;;;;;;;36.47;19.13;;;;;;;17.27;100.00;101951.56;5055629;28;20357;-73
2021/08/21 06:58:51;;;;;;;44.03;19.60;;;;;;;17.26;99.53;101946.22;5057212;28;20095;-74
2021/08/21 07:01:18;;;;;;;36.25;17.15;;;;;;;17.34;99.10;101947.66;5056814;28;20068;-74
2021/08/21 07:03:46;;;;;;;35.30;16.95;;;;;;;17.45;98.86;101949.91;5056483;28;20246;-71
2021/08/21 07:06:14;;;;;;;38.17;17.45;;;;;;;17.63;99.02;101950.03;5055788;28;20068;-72
2021/08/21 07:08:44;;;;;;;35.97;17.42;;;;;;;17.82;98.54;101942.00;5057408;28;20065;-74
2021/08/21 07:11:12;;;;;;;34.30;16.02;;;;;;;17.88;97.39;101937.22;5053799;28;20103;-74
2021/08/21 07:13:39;;;;;;;38.83;17.67;;;;;;;18.13;96.37;101943.31;5058268;28;20060;-75
2021/08/21 07:16:07;;;;;;;34.88;16.38;;;;;;;18.35;95.32;101935.09;5059822;28;20064;-75
2021/08/21 07:18:35;;;;;;;32.33;15.20;;;;;;;18.51;94.42;101933.41;5059081;28;20128;-74
2021/08/21 07:21:03;;;;;;;34.05;16.63;;;;;;;18.83;93.24;101929.16;5055509;28;20064;-73
2021/08/21 07:23:30;;;;;;;30.73;14.25;;;;;;;19.03;91.75;101925.47;5055689;28;20092;-73
2021/08/21 07:26:00;;;;;;;30.42;15.23;;;;;;;19.65;89.70;101925.00;5058903;28;20379;-73
2021/08/21 07:28:27;;;;;;;30.17;14.85;;;;;;;20.02;85.71;101931.13;5055665;28;20068;-76
2021/08/21 07:30:55;;;;;;;28.42;14.27;;;;;;;19.88;83.62;101931.88;5054902;28;20056;-72
2021/08/21 07:33:23;;;;;;;25.00;13.18;;;;;;;19.67;84.54;101936.59;5056668;28;20092;-73
2021/08/21 07:35:50;;;;;;;27.00;14.07;;;;;;;19.66;84.54;101931.25;5054145;28;20068;-74
2021/08/21 07:38:18;;;;;;;27.45;13.45;;;;;;;20.08;83.02;101921.81;5055223;28;20063;-72
2021/08/21 07:40:46;;;;;;;30.38;13.65;;;;;;;20.43;82.38;101917.13;5057245;28;20565;-72
2021/08/21 07:43:15;;;;;;;25.35;12.23;;;;;;;20.51;82.29;101920.25;5055656;28;20642;-71
2021/08/21 07:45:46;;;;;;;26.40;13.43;;;;;;;20.82;80.53;101912.25;5052532;28;20166;-73
2021/08/21 07:48:15;;;;;;;27.77;11.88;;;;;;;20.36;80.35;101926.56;5053603;28;20681;-72
2021/08/21 07:50:43;;;;;;;23.25;11.80;;;;;;;20.23;80.31;101917.38;5054234;28;20465;-74
2021/08/21 07:53:12;;;;;;;29.92;12.50;;;;;;;20.60;80.48;101921.59;5054827;28;20125;-74
2021/08/21 07:55:42;;;;;;;23.65;11.77;;;;;;;21.04;76.70;101920.88;5057955;28;20270;-72
2021/08/21 07:58:10;;;;;;;22.40;11.60;;;;;;;21.00;76.50;101910.28;5056104;28;20490;-72
2021/08/21 08:00:39;;;;;;;23.80;12.55;;;;;;;20.54;77.35;101930.06;5054025;28;20065;-73
2021/08/21 08:03:11;;;;;;;25.52;12.38;;;;;;;20.66;77.06;101931.25;5054296;28;20068;-74
2021/08/21 08:05:39;;;;;;;24.15;12.32;;;;;;;21.12;76.43;101923.13;5056847;28;20405;-74
2021/08/21 08:08:07;;;;;;;22.83;12.60;;;;;;;20.95;76.65;101913.28;5054180;28;20328;-72
2021/08/21 08:10:35;;;;;;;23.35;12.02;;;;;;;21.48;74.49;101921.03;5048519;28;20065;-72
2021/08/21 08:13:04;;;;;;;22.63;11.35;;;;;;;22.00;73.79;101925.94;5054572;28;20044;-73
2021/08/21 08:15:32;;;;;;;20.10;11.18;;;;;;;22.24;71.92;101920.78;5056605;28;20071;-72
2021/08/21 08:18:01;;;;;;;22.48;12.52;;;;;;;22.45;71.41;101917.69;5054724;28;20060;-72
2021/08/21 08:20:29;;;;;;;22.05;12.70;;;;;;;22.22;70.90;101917.31;5059735;28;20096;-71
2021/08/21 08:22:56;;;;;;;21.52;11.77;;;;;;;22.12;70.93;101922.44;5055829;28;20092;-72
2021/08/21 08:25:24;;;;;;;24.25;13.02;;;;;;;21.95;71.04;101925.38;5056310;28;20067;-73
2021/08/21 08:27:52;;;;;;;24.95;13.55;;;;;;;22.04;72.12;101922.06;5054044;28;20064;-73
2021/08/21 08:30:20;;;;;;;24.08;11.95;;;;;;;21.92;71.37;101920.13;5053122;28;20096;-72
2021/08/21 08:32:48;;;;;;;20.00;10.80;;;;;;;22.20;70.60;101922.81;5054936;28;20460;-72
2021/08/21 08:35:17;;;;;;;21.02;10.93;;;;;;;22.08;71.18;101930.88;5052705;28;20083;-73
2021/08/21 08:37:45;;;;;;;23.63;11.38;;;;;;;22.19;70.85;101920.22;5058615;28;20141;-72
2021/08/21 08:40:13;;;;;;;23.98;11.57;;;;;;;22.24;70.48;101915.34;5053462;28;20126;-73
2021/08/21 08:42:42;;;;;;;20.33;11.68;;;;;;;22.60;71.14;101915.81;5057503;28;20143;-73
2021/08/21 08:45:14;;;;;;;20.73;9.75;;;;;;;22.59;69.02;101914.03;5053961;28;20090;-73
2021/08/21 08:47:44;;;;;;;18.27;10.20;;;;;;;22.59;68.68;101919.47;5054327;28;20137;-72
2021/08/21 08:50:13;;;;;;;15.05;9.18;;;;;;;22.56;68.39;101924.16;5060352;28;20064;-73
2021/08/21 08:52:42;;;;;;;17.90;9.73;;;;;;;22.60;68.67;101932.97;5052528;28;20468;-74
2021/08/21 08:55:12;;;;;;;17.77;9.95;;;;;;;22.61;69.28;101923.88;5053634;28;20148;-74
2021/08/21 08:57:41;;;;;;;19.23;10.82;;;;;;;22.45;69.45;101923.13;5054735;28;20076;-73
2021/08/21 09:00:11;;;;;;;20.52;11.05;;;;;;;22.32;69.76;101923.91;5055642;28;20080;-74
2021/08/21 09:02:41;;;;;;;19.58;11.18;;;;;;;22.28;68.93;101927.78;5053765;28;20071;-74
2021/08/21 09:05:11;;;;;;;17.33;9.02;;;;;;;22.43;68.83;101930.50;5054437;28;20382;-74
2021/08/21 09:07:45;;;;;;;17.40;9.25;;;;;;;22.91;67.15;101929.09;5055396;28;20076;-75
2021/08/21 09:10:16;;;;;;;16.63;9.55;;;;;;;23.41;66.62;101931.22;5057268;28;20060;-74
2021/08/21 09:12:44;;;;;;;20.83;11.30;;;;;;;23.37;65.16;101924.25;5054731;28;20317;-74
2021/08/21 09:15:27;;;;;;;16.48;9.60;;;;;;;23.40;65.83;101937.66;5055091;28;20437;-73
2021/08/21 09:18:05;;;;;;;18.58;9.63;;;;;;;23.66;65.10;101927.66;5057573;28;20142;-74
2021/08/21 09:20:34;;;;;;;15.27;9.18;;;;;;;24.03;63.89;101922.34;5056988;28;20075;-74
2021/08/21 09:23:22;;;;;;;13.88;8.18;;;;;;;24.07;63.69;101921.13;5056147;28;20379;-74
2021/08/21 09:25:52;;;;;;;13.15;7.85;;;;;;;23.85;61.70;101924.53;5054863;28;20454;-73
2021/08/21 09:28:21;;;;;;;13.38;6.78;;;;;;;24.04;62.02;101926.78;5056292;28;20088;-74
2021/08/21 09:31:01;;;;;;;13.32;7.05;;;;;;;24.49;60.12;101913.50;5058015;28;20158;-74
2021/08/21 09:33:29;;;;;;;15.10;7.93;;;;;;;24.42;60.38;101912.25;5058022;28;20138;-73
2021/08/21 09:35:57;;;;;;;11.35;7.20;;;;;;;24.83;59.73;101905.56;5062287;28;20745;-73
2021/08/21 09:38:29;;;;;;;20.48;8.95;;;;;;;24.40;59.51;101916.94;5057908;28;20075;-74
2021/08/21 09:41:02;;;;;;;11.77;7.40;;;;;;;24.75;59.29;101911.59;5060749;28;20494;-73
2021/08/21 09:43:32;;;;;;;;;;;;;;;24.67;58.88;101908.59;5061595;28;20068;-73
2021/08/21 09:46:16;;;;;;;13.43;6.90;;;;;;;25.02;57.97;101896.84;5059915;28;20362;-73
2021/08/21 09:49:01;;;;;;;12.40;7.68;;;;;;;24.70;57.82;101905.59;5056382;28;20076;-73
2021/08/21 09:51:36;;;;;;;10.32;6.25;;;;;;;24.82;56.42;101906.53;5057596;28;20092;-73
2021/08/21 09:54:08;;;;;;;11.55;6.50;;;;;;;25.29;57.26;101904.78;5055390;28;20088;-71
2021/08/21 09:56:38;;;;;;;12.43;6.50;;;;;;;24.18;57.20;101909.47;5059015;28;20098;-74
2021/08/21 09:59:07;;;;;;;13.73;7.57;;;;;;;24.55;58.26;101904.91;5055084;28;20061;-71
2021/08/21 10:01:35;;;;;;;11.60;6.78;;;;;;;24.46;57.48;101912.88;5058342;28;20114;-71
2021/08/21 10:04:05;;;;;;;11.35;6.00;;;;;;;24.80;57.23;101898.47;5055663;28;20151;-70
2021/08/21 10:06:33;;;;;;;10.23;6.00;;;;;;;25.20;55.63;101894.56;5058472;28;20060;-70
2021/08/21 10:09:04;;;;;;;10.88;5.82;;;;;;;25.48;54.74;101897.88;5060456;28;20377;-71
2021/08/21 10:11:35;;;;;;;14.43;7.38;;;;;;;25.35;56.08;101893.38;5059401;28;20071;-71
2021/08/21 10:14:03;;;;;;;12.27;7.15;;;;;;;25.71;53.67;101893.31;5057839;28;20299;-71
2021/08/21 10:16:33;;;;;;;14.38;7.35;;;;;;;25.30;54.38;101898.34;5057488;28;20068;-73
2021/08/21 10:19:03;;;;;;;13.25;7.60;;;;;;;24.95;55.24;101901.88;5055280;28;20409;-74
2021/08/21 10:21:31;;;;;;;13.20;7.75;;;;;;;25.13;56.37;101896.88;5056352;28;20069;-73
2021/08/21 10:23:59;;;;;;;13.02;7.20;;;;;;;25.08;56.58;101890.03;5057643;28;20110;-73
2021/08/21 10:26:32;;;;;;;12.65;6.88;;;;;;;25.25;54.54;101899.63;5060680;28;20381;-73
2021/08/21 10:29:02;;;;;;;15.80;8.52;;;;;;;24.80;56.75;101892.16;5054264;28;20472;-73
2021/08/21 10:31:35;;;;;;;14.40;8.73;;;;;;;24.46;57.26;101910.16;5055918;28;20122;-72
2021/08/21 10:34:04;;;;;;;18.33;9.35;;;;;;;25.03;56.61;101900.41;5053819;28;20088;-73
2021/08/21 10:36:50;;;;;;;15.27;9.15;;;;;;;25.19;55.85;101897.41;5055660;28;20065;-73
2021/08/21 10:39:24;;;;;;;13.30;8.70;;;;;;;25.30;55.80;101902.91;5057399;28;20142;-72
2021/08/21 10:41:54;;;;;;;15.32;9.25;;;;;;;24.77;55.42;101895.09;5057504;28;20049;-72
2021/08/21 10:44:43;;;;;;;17.50;9.80;;;;;;;24.96;54.93;101890.00;5057485;28;20178;-71
2021/08/21 10:47:39;;;;;;;18.30;9.82;;;;;;;25.29;54.81;101893.84;5056949;28;20382;-71
2021/08/21 10:50:30;;;;;;;13.57;8.18;;;;;;;25.77;53.63;101892.81;5060296;28;20091;-71
2021/08/21 10:52:59;;;;;;;17.08;9.18;;;;;;;25.56;53.75;101887.22;5052772;28;20060;-71
2021/08/21 10:55:28;;;;;;;17.17;9.82;;;;;;;25.43;55.05;101891.91;5058573;28;20064;-71
2021/08/21 10:58:09;;;;;;;19.10;11.30;;;;;;;25.44;53.81;101889.06;5052908;28;20433;-71
2021/08/21 11:00:56;;;;;;;19.70;11.02;;;;;;;25.64;53.90;101883.88;5055848;28;20482;-72
2021/08/21 11:03:47;;;;;;;19.95;9.00;;;;;;;25.60;52.30;101882.38;5059861;28;20095;-71
2021/08/21 11:06:16;;;;;;;14.48;9.13;;;;;;;25.58;52.69;101882.50;5056529;28;20096;-71
2021/08/21 11:08:56;;;;;;;19.38;9.43;;;;;;;25.16;54.80;101874.81;5057502;28;20065;-72
2021/08/21 11:11:29;;;;;;;13.45;7.70;;;;;;;25.14;53.26;101878.63;5056742;28;20064;-72
2021/08/21 11:14:00;;;;;;;12.32;7.75;;;;;;;24.82;53.09;101876.50;5058636;28;20126;-69
2021/08/21 11:16:51;;;;;;;16.70;8.27;;;;;;;25.45;53.29;101876.25;5054514;28;20432;-72